createdAt,value
2017-11-25T00:00:38.445Z,8.50
2017-11-25T00:03:05.996Z,8.50
2017-11-25T00:05:34.283Z,8.50
2017-11-25T00:08:02.589Z,8.50
2017-11-25T00:10:30.116Z,8.50
2017-11-25T00:12:57.657Z,8.50
2017-11-25T00:15:25.180Z,8.50
2017-11-25T00:17:52.724Z,8.60
2017-11-25T00:20:21.007Z,8.60
2017-11-25T00:22:49.296Z,8.60
2017-11-25T00:25:16.840Z,8.60
2017-11-25T00:27:45.131Z,8.60
2017-11-25T00:30:13.435Z,8.50
2017-11-25T00:32:40.957Z,8.50
2017-11-25T00:35:08.498Z,8.60
2017-11-25T00:37:36.024Z,8.60
2017-11-25T00:40:03.580Z,8.60
2017-11-25T00:42:31.104Z,8.60
2017-11-25T00:44:58.625Z,8.70
2017-11-25T00:47:26.167Z,8.60
2017-11-25T00:49:53.687Z,8.70
2017-11-25T00:52:21.219Z,8.60
2017-11-25T00:54:48.740Z,8.60
2017-11-25T00:57:17.048Z,8.60
2017-11-25T00:59:44.568Z,8.60
2017-11-25T01:02:12.108Z,8.60
2017-11-25T01:04:39.629Z,8.60
2017-11-25T01:07:07.192Z,8.60
2017-11-25T01:09:34.713Z,8.60
2017-11-25T01:12:02.252Z,8.70
2017-11-25T01:14:29.784Z,8.80
2017-11-25T01:16:57.329Z,8.90
2017-11-25T01:19:25.616Z,8.90
2017-11-25T01:21:53.924Z,8.90
2017-11-25T01:24:21.453Z,8.90
2017-11-25T01:26:49.761Z,8.90
2017-11-25T01:29:17.284Z,8.80
2017-11-25T01:31:44.820Z,8.90
2017-11-25T01:34:12.331Z,8.90
2017-11-25T01:36:40.631Z,8.90
2017-11-25T01:39:08.152Z,8.90
2017-11-25T01:41:35.692Z,8.90
2017-11-25T01:44:03.220Z,8.80
2017-11-25T01:46:30.768Z,8.80
2017-11-25T01:48:59.055Z,8.70
2017-11-25T01:51:27.365Z,8.70
2017-11-25T01:53:54.888Z,8.70
2017-11-25T01:56:23.189Z,8.70
2017-11-25T01:58:50.722Z,8.70
2017-11-25T02:01:18.259Z,8.70
2017-11-25T02:03:45.779Z,8.70
2017-11-25T02:06:13.318Z,8.70
2017-11-25T02:08:41.601Z,8.60
2017-11-25T02:11:09.915Z,8.60
2017-11-25T02:13:37.500Z,8.60
2017-11-25T02:16:05.016Z,8.60
2017-11-25T02:18:33.320Z,8.60
2017-11-25T02:21:00.837Z,8.60
2017-11-25T02:23:28.376Z,8.60
2017-11-25T02:25:55.894Z,8.70
2017-11-25T02:28:24.203Z,8.70
2017-11-25T02:30:51.724Z,8.70
2017-11-25T02:33:20.034Z,8.70
2017-11-25T02:35:47.552Z,8.70
2017-11-25T02:38:15.089Z,8.60
2017-11-25T02:40:42.609Z,8.70
2017-11-25T02:43:10.160Z,8.70
2017-11-25T02:45:38.445Z,8.60
2017-11-25T02:48:06.748Z,8.70
2017-11-25T02:50:34.278Z,8.60
2017-11-25T02:53:02.589Z,8.60
2017-11-25T02:55:30.108Z,8.70
2017-11-25T02:57:57.655Z,8.70
2017-11-25T03:00:25.947Z,8.70
2017-11-25T03:02:53.486Z,8.70
2017-11-25T03:05:21.012Z,8.70
2017-11-25T03:07:49.317Z,8.70
2017-11-25T03:10:16.834Z,8.70
2017-11-25T03:12:44.371Z,8.70
2017-11-25T03:15:11.912Z,8.70
2017-11-25T03:17:39.459Z,8.70
2017-11-25T03:20:06.980Z,8.70
2017-11-25T03:22:34.540Z,8.70
2017-11-25T03:25:02.057Z,8.70
2017-11-25T03:27:29.580Z,8.70
2017-11-25T03:29:57.116Z,8.60
2017-11-25T03:32:24.645Z,8.70
2017-11-25T03:34:52.189Z,8.70
2017-11-25T03:37:19.724Z,8.70
2017-11-25T03:39:48.044Z,8.70
2017-11-25T03:42:15.570Z,8.70
2017-11-25T03:44:43.109Z,8.80
2017-11-25T03:47:10.632Z,8.80
2017-11-25T03:49:38.164Z,8.80
2017-11-25T03:52:06.449Z,8.80
2017-11-25T03:54:34.756Z,8.80
2017-11-25T03:57:02.280Z,8.80
2017-11-25T03:59:29.820Z,8.90
2017-11-25T04:01:57.341Z,8.80
2017-11-25T04:04:24.880Z,8.80
2017-11-25T04:06:54.909Z,8.80
2017-11-25T04:09:23.232Z,8.80
2017-11-25T04:11:50.754Z,8.80
2017-11-25T04:14:19.036Z,8.80
2017-11-25T04:16:47.336Z,8.80
2017-11-25T04:19:14.857Z,8.80
2017-11-25T04:21:42.405Z,8.80
2017-11-25T04:24:09.920Z,8.80
2017-11-25T04:26:37.455Z,8.80
2017-11-25T04:29:04.971Z,8.80
2017-11-25T04:31:32.527Z,8.80
2017-11-25T04:34:00.048Z,8.80
2017-11-25T04:36:28.340Z,8.80
2017-11-25T04:38:56.647Z,8.80
2017-11-25T04:41:24.172Z,8.80
2017-11-25T04:43:51.712Z,8.70
2017-11-25T04:46:19.228Z,8.80
2017-11-25T04:48:46.767Z,8.70
2017-11-25T04:51:15.055Z,8.80
2017-11-25T04:53:43.355Z,8.70
2017-11-25T04:56:10.887Z,8.70
2017-11-25T04:58:39.196Z,8.70
2017-11-25T05:01:06.716Z,8.70
2017-11-25T05:03:34.261Z,8.70
2017-11-25T05:06:01.784Z,8.70
2017-11-25T05:08:29.316Z,8.60
2017-11-25T05:10:56.845Z,8.60
2017-11-25T05:13:24.383Z,8.60
2017-11-25T05:15:51.914Z,8.60
2017-11-25T05:18:19.456Z,8.60
2017-11-25T05:20:46.979Z,8.60
2017-11-25T05:23:14.517Z,8.60
2017-11-25T05:25:42.800Z,8.60
2017-11-25T05:28:10.360Z,8.60
2017-11-25T05:30:37.895Z,8.50
2017-11-25T05:33:05.420Z,8.40
2017-11-25T05:35:32.957Z,8.50
2017-11-25T05:38:00.480Z,8.50
2017-11-25T05:40:28.032Z,8.50
2017-11-25T05:42:55.547Z,8.50
2017-11-25T05:45:23.086Z,8.40
2017-11-25T05:47:51.366Z,8.40
2017-11-25T05:50:19.670Z,8.40
2017-11-25T05:52:47.195Z,8.40
2017-11-25T05:55:14.739Z,8.30
2017-11-25T05:57:42.263Z,8.20
2017-11-25T06:00:09.790Z,8.20
2017-11-25T06:02:38.108Z,8.10
2017-11-25T06:05:05.631Z,8.10
2017-11-25T06:07:33.168Z,8.10
2017-11-25T06:10:00.692Z,8.10
2017-11-25T06:12:28.231Z,8.10
2017-11-25T06:14:56.518Z,8.00
2017-11-25T06:17:24.833Z,7.90
2017-11-25T06:19:52.355Z,7.90
2017-11-25T06:22:20.662Z,7.80
2017-11-25T06:24:48.199Z,7.80
2017-11-25T06:27:15.735Z,7.80
2017-11-25T06:29:43.271Z,7.80
2017-11-25T06:32:10.815Z,7.80
2017-11-25T06:34:38.340Z,7.80
2017-11-25T06:37:05.879Z,7.80
2017-11-25T06:39:33.404Z,7.80
2017-11-25T06:42:00.940Z,7.80
2017-11-25T06:44:29.235Z,7.70
2017-11-25T06:46:57.540Z,7.70
2017-11-25T06:49:25.061Z,7.70
2017-11-25T06:51:52.599Z,7.60
2017-11-25T06:54:20.115Z,7.60
2017-11-25T06:56:48.429Z,7.50
2017-11-25T06:59:15.949Z,7.50
2017-11-25T07:01:44.259Z,7.50
2017-11-25T07:04:11.784Z,7.50
2017-11-25T07:06:39.320Z,7.50
2017-11-25T07:09:06.860Z,7.50
2017-11-25T07:11:34.385Z,7.40
2017-11-25T07:14:01.932Z,7.40
2017-11-25T07:16:29.453Z,7.40
2017-11-25T07:18:56.999Z,7.30
2017-11-25T07:21:25.284Z,7.40
2017-11-25T07:23:52.822Z,7.30
2017-11-25T07:26:20.343Z,7.30
2017-11-25T07:28:47.904Z,7.40
2017-11-25T07:31:15.432Z,7.30
2017-11-25T07:33:43.718Z,7.30
2017-11-25T07:36:11.254Z,7.20
2017-11-25T07:38:38.780Z,7.20
2017-11-25T07:41:06.325Z,7.20
2017-11-25T07:43:33.857Z,7.20
2017-11-25T07:46:02.168Z,7.10
2017-11-25T07:48:29.692Z,7.10
2017-11-25T07:50:57.238Z,7.20
2017-11-25T07:53:24.761Z,7.10
2017-11-25T07:55:52.303Z,7.10
2017-11-25T07:58:19.830Z,7.10
2017-11-25T08:00:47.367Z,7.10
2017-11-25T08:03:14.934Z,7.10
2017-11-25T08:05:42.470Z,7.00
2017-11-25T08:08:09.998Z,7.00
2017-11-25T08:10:37.559Z,7.00
2017-11-25T08:13:05.075Z,7.00
2017-11-25T08:15:32.617Z,7.00
2017-11-25T08:18:00.142Z,6.90
2017-11-25T08:20:27.699Z,7.00
2017-11-25T08:22:55.214Z,6.90
2017-11-25T08:25:22.731Z,6.90
2017-11-25T08:27:50.284Z,6.90
2017-11-25T08:30:17.804Z,6.90
2017-11-25T08:32:45.343Z,6.90
2017-11-25T08:35:13.637Z,6.90
2017-11-25T08:37:41.944Z,6.90
2017-11-25T08:40:09.467Z,6.90
2017-11-25T08:42:37.008Z,6.90
2017-11-25T08:45:04.527Z,6.90
2017-11-25T08:47:32.081Z,6.90
2017-11-25T08:49:59.608Z,6.90
2017-11-25T08:52:27.150Z,6.90
2017-11-25T08:54:54.671Z,6.90
2017-11-25T08:57:22.223Z,6.80
2017-11-25T08:59:50.514Z,6.80
2017-11-25T09:02:18.040Z,6.80
2017-11-25T09:04:45.583Z,6.80
2017-11-25T09:07:13.121Z,6.80
2017-11-25T09:09:40.659Z,6.80
2017-11-25T09:12:08.945Z,6.80
2017-11-25T09:14:37.253Z,6.80
2017-11-25T09:17:04.772Z,6.70
2017-11-25T09:19:33.080Z,6.80
2017-11-25T09:22:00.601Z,6.80
2017-11-25T09:24:28.145Z,6.90
2017-11-25T09:26:55.660Z,6.90
2017-11-25T09:29:23.203Z,6.90
2017-11-25T09:31:50.719Z,6.90
2017-11-25T09:34:18.261Z,6.90
2017-11-25T09:36:45.797Z,6.90
2017-11-25T09:39:14.101Z,6.90
2017-11-25T09:41:41.629Z,6.90
2017-11-25T09:44:09.171Z,6.90
2017-11-25T09:46:36.698Z,7.00
2017-11-25T09:49:04.262Z,7.00
2017-11-25T09:51:31.793Z,7.00
2017-11-25T09:53:59.304Z,7.00
2017-11-25T09:56:26.839Z,7.00
2017-11-25T09:58:55.128Z,7.00
2017-11-25T10:01:23.436Z,7.00
2017-11-25T10:03:51.015Z,6.90
2017-11-25T10:06:18.551Z,6.90
2017-11-25T10:08:46.073Z,6.90
2017-11-25T10:11:13.616Z,6.90
2017-11-25T10:13:41.139Z,6.90
2017-11-25T10:16:08.684Z,6.90
2017-11-25T10:18:36.972Z,6.90
2017-11-25T10:21:04.516Z,6.80
2017-11-25T10:23:32.032Z,6.80
2017-11-25T10:25:59.587Z,6.80
2017-11-25T10:28:27.108Z,6.80
2017-11-25T10:30:54.668Z,6.80
2017-11-25T10:33:22.196Z,6.70
2017-11-25T10:35:49.724Z,6.80
2017-11-25T10:38:17.263Z,6.70
2017-11-25T10:40:45.548Z,6.70
2017-11-25T10:43:13.862Z,6.70
2017-11-25T10:45:41.384Z,6.70
2017-11-25T10:48:08.923Z,6.70
2017-11-25T10:50:36.442Z,6.70
2017-11-25T10:53:03.983Z,6.70
2017-11-25T10:55:32.270Z,6.70
2017-11-25T10:57:59.815Z,6.70
2017-11-25T11:00:27.332Z,6.70
2017-11-25T11:02:54.908Z,6.70
2017-11-25T11:05:22.430Z,6.60
2017-11-25T11:07:49.951Z,6.60
2017-11-25T11:10:17.492Z,6.50
2017-11-25T11:12:45.016Z,6.50
2017-11-25T11:15:12.561Z,6.50
2017-11-25T11:17:40.862Z,6.50
2017-11-25T11:20:08.474Z,6.50
2017-11-25T11:22:36.000Z,6.50
2017-11-25T11:25:03.553Z,6.50
2017-11-25T11:27:31.079Z,6.40
2017-11-25T11:29:58.688Z,6.40
2017-11-25T11:32:26.213Z,6.40
2017-11-25T11:34:53.775Z,6.30
2017-11-25T11:37:21.298Z,6.30
2017-11-25T11:39:48.837Z,6.30
2017-11-25T11:42:17.121Z,6.40
2017-11-25T11:44:44.644Z,6.30
2017-11-25T11:47:12.189Z,6.40
2017-11-25T11:49:39.757Z,6.40
2017-11-25T11:52:07.341Z,6.40
2017-11-25T11:54:34.844Z,6.30
2017-11-25T11:57:03.151Z,6.40
2017-11-25T11:59:30.676Z,6.30
2017-11-25T12:01:58.222Z,6.40
2017-11-25T12:04:26.511Z,6.40
2017-11-25T12:06:54.820Z,6.40
2017-11-25T12:09:22.336Z,6.40
2017-11-25T12:11:49.876Z,6.40
2017-11-25T12:14:17.397Z,6.40
2017-11-25T12:16:44.933Z,6.40
2017-11-25T12:19:13.221Z,6.30
2017-11-25T12:21:41.527Z,6.30
2017-11-25T12:24:09.066Z,6.30
2017-11-25T12:26:37.370Z,6.30
2017-11-25T12:29:04.897Z,6.30
2017-11-25T12:31:32.441Z,6.30
2017-11-25T12:33:59.965Z,6.40
2017-11-25T12:36:27.489Z,6.40
2017-11-25T12:38:55.026Z,6.40
2017-11-25T12:41:22.557Z,6.30
2017-11-25T12:43:50.099Z,6.40
2017-11-25T12:46:18.378Z,6.30
2017-11-25T12:48:46.688Z,6.30
2017-11-25T12:51:14.202Z,6.30
2017-11-25T12:53:41.740Z,6.30
2017-11-25T12:56:09.268Z,6.20
2017-11-25T12:58:36.816Z,6.30
2017-11-25T13:01:05.132Z,6.20
2017-11-25T13:03:32.692Z,6.20
2017-11-25T13:06:00.218Z,6.20
2017-11-25T13:08:28.510Z,6.20
2017-11-25T13:10:56.056Z,6.20
2017-11-25T13:13:24.340Z,6.20
2017-11-25T13:15:52.647Z,6.20
2017-11-25T13:18:20.166Z,6.20
2017-11-25T13:20:47.704Z,6.10
2017-11-25T13:23:15.223Z,5.80
2017-11-25T13:25:42.760Z,5.50
2017-11-25T13:28:10.280Z,5.30
2017-11-25T13:30:37.815Z,5.20
2017-11-25T13:33:05.334Z,5.20
2017-11-25T13:35:32.887Z,5.20
2017-11-25T13:38:00.416Z,5.20
2017-11-25T13:40:27.942Z,5.20
2017-11-25T13:42:55.487Z,5.20
2017-11-25T13:45:23.011Z,5.20
2017-11-25T13:47:50.552Z,5.30
2017-11-25T13:50:18.841Z,5.40
2017-11-25T13:52:46.380Z,5.30
2017-11-25T13:55:14.673Z,5.40
2017-11-25T13:57:42.239Z,5.40
2017-11-25T14:00:10.533Z,5.50
2017-11-25T14:02:38.071Z,5.50
2017-11-25T14:05:06.355Z,5.60
2017-11-25T14:07:34.655Z,5.60
2017-11-25T14:10:02.181Z,5.60
2017-11-25T14:12:29.724Z,5.60
2017-11-25T14:14:57.260Z,5.50
2017-11-25T14:17:24.801Z,5.50
2017-11-25T14:19:52.325Z,5.50
2017-11-25T14:22:19.880Z,5.50
2017-11-25T14:24:47.392Z,5.50
2017-11-25T14:27:14.923Z,5.50
2017-11-25T14:29:42.463Z,5.40
2017-11-25T14:32:09.991Z,5.40
2017-11-25T14:34:37.532Z,5.30
2017-11-25T14:37:05.821Z,5.40
2017-11-25T14:39:33.365Z,5.40
2017-11-25T14:42:01.652Z,5.40
2017-11-25T14:44:29.958Z,5.40
2017-11-25T14:46:57.483Z,5.30
2017-11-25T14:49:25.792Z,5.30
2017-11-25T14:51:53.312Z,5.30
2017-11-25T14:54:20.859Z,5.20
2017-11-25T14:56:48.383Z,5.10
2017-11-25T14:59:15.928Z,5.10
2017-11-25T15:01:44.220Z,4.90
2017-11-25T15:04:11.744Z,4.90
2017-11-25T15:06:39.288Z,4.80
2017-11-25T15:09:06.810Z,4.80
2017-11-25T15:11:34.347Z,4.70
2017-11-25T15:14:03.081Z,4.60
2017-11-25T15:16:30.625Z,4.50
2017-11-25T15:18:58.164Z,4.60
2017-11-25T15:21:26.477Z,4.50
2017-11-25T15:23:54.000Z,4.50
2017-11-25T15:26:21.564Z,4.50
2017-11-25T15:28:49.091Z,4.50
2017-11-25T15:31:16.617Z,4.30
2017-11-25T15:33:44.924Z,4.20
2017-11-25T15:36:12.439Z,4.20
2017-11-25T15:38:39.981Z,4.20
2017-11-25T15:41:07.507Z,4.10
2017-11-25T15:43:35.058Z,4.10
2017-11-25T15:46:02.577Z,4.20
2017-11-25T15:48:30.116Z,4.20
2017-11-25T15:50:57.646Z,4.30
2017-11-25T15:53:25.954Z,4.20
2017-11-25T15:55:53.484Z,4.20
2017-11-25T15:58:21.808Z,4.20
2017-11-25T16:00:49.343Z,4.10
2017-11-25T16:03:16.865Z,4.20
2017-11-25T16:05:44.407Z,4.10
2017-11-25T16:08:11.978Z,4.20
2017-11-25T16:10:39.520Z,4.10
2017-11-25T16:13:07.087Z,4.10
2017-11-25T16:15:34.631Z,4.10
2017-11-25T16:18:02.143Z,4.10
2017-11-25T16:20:29.685Z,4.10
2017-11-25T16:22:57.235Z,4.10
2017-11-25T16:25:24.789Z,4.10
2017-11-25T16:27:52.311Z,4.10
2017-11-25T16:30:19.844Z,4.20
2017-11-25T16:32:47.396Z,4.20
2017-11-25T16:35:14.926Z,4.20
2017-11-25T16:37:43.241Z,4.20
2017-11-25T16:40:10.757Z,4.20
2017-11-25T16:42:38.303Z,4.10
2017-11-25T16:45:05.828Z,4.10
2017-11-25T16:47:34.191Z,4.10
2017-11-25T16:50:02.474Z,4.10
2017-11-25T16:52:30.024Z,4.00
2017-11-25T16:54:58.321Z,4.00
2017-11-25T16:57:25.874Z,4.00
2017-11-25T16:59:54.161Z,3.90
2017-11-25T17:02:21.693Z,3.90
2017-11-25T17:04:49.230Z,3.90
2017-11-25T17:07:16.752Z,3.80
2017-11-25T17:09:45.060Z,3.80
2017-11-25T17:12:12.588Z,3.80
2017-11-25T17:14:40.888Z,3.70
2017-11-25T17:17:08.404Z,3.70
2017-11-25T17:19:35.944Z,3.70
2017-11-25T17:22:03.464Z,3.60
2017-11-25T17:24:31.800Z,3.50
2017-11-25T17:26:59.326Z,3.50
2017-11-25T17:29:26.861Z,3.50
2017-11-25T17:31:55.184Z,3.50
2017-11-25T17:34:22.706Z,3.40
2017-11-25T17:36:51.011Z,3.40
2017-11-25T17:39:18.532Z,3.40
2017-11-25T17:41:46.080Z,3.40
2017-11-25T17:44:13.591Z,3.40
2017-11-25T17:46:41.909Z,3.40
2017-11-25T17:49:09.431Z,3.40
2017-11-25T17:51:37.739Z,3.30
2017-11-25T17:54:05.264Z,3.30
2017-11-25T17:56:32.808Z,3.20
2017-11-25T17:59:00.336Z,3.20
2017-11-25T18:01:27.881Z,3.20
2017-11-25T18:03:55.405Z,3.20
2017-11-25T18:06:22.961Z,3.20
2017-11-25T18:08:50.484Z,3.20
2017-11-25T18:11:18.008Z,3.20
2017-11-25T18:13:45.551Z,3.30
2017-11-25T18:16:13.080Z,3.20
2017-11-25T18:18:40.636Z,3.30
2017-11-25T18:21:08.164Z,3.30
2017-11-25T18:23:35.700Z,3.40
2017-11-25T18:26:03.232Z,3.30
2017-11-25T18:28:30.778Z,3.40
2017-11-25T18:30:59.094Z,3.20
2017-11-25T18:33:26.643Z,3.20
2017-11-25T18:35:54.181Z,3.20
2017-11-25T18:38:22.509Z,3.20
2017-11-25T18:40:50.035Z,3.20
2017-11-25T18:43:18.372Z,3.10
2017-11-25T18:45:45.920Z,3.00
2017-11-25T18:48:13.447Z,3.10
2017-11-25T18:50:41.759Z,3.10
2017-11-25T18:53:09.291Z,3.10
2017-11-25T18:55:37.600Z,3.20
2017-11-25T18:58:05.127Z,3.20
2017-11-25T19:00:32.664Z,3.20
2017-11-25T19:03:00.188Z,3.10
2017-11-25T19:05:27.732Z,3.10
2017-11-25T19:07:56.011Z,3.10
2017-11-25T19:10:24.324Z,3.10
2017-11-25T19:12:51.848Z,3.00
2017-11-25T19:15:19.398Z,3.10
2017-11-25T19:17:46.921Z,3.00
2017-11-25T19:20:14.449Z,3.10
2017-11-25T19:22:42.765Z,2.90
2017-11-25T19:25:10.320Z,2.90
2017-11-25T19:27:37.902Z,2.90
2017-11-25T19:30:05.437Z,2.90
2017-11-25T19:32:33.749Z,2.90
2017-11-25T19:35:01.276Z,2.90
2017-11-25T19:37:29.568Z,2.80
2017-11-25T19:39:57.117Z,2.80
2017-11-25T19:42:25.412Z,2.80
2017-11-25T19:44:53.731Z,2.80
2017-11-25T19:47:21.256Z,2.80
2017-11-25T19:49:49.568Z,2.80
2017-11-25T19:52:17.098Z,2.70
2017-11-25T19:54:45.426Z,2.70
2017-11-25T19:57:12.988Z,2.60
2017-11-25T19:59:40.541Z,2.70
2017-11-25T20:02:08.076Z,2.60
2017-11-25T20:04:36.459Z,2.60
2017-11-25T20:07:04.755Z,2.50
2017-11-25T20:09:32.281Z,2.50
2017-11-25T20:11:59.874Z,2.50
2017-11-25T20:14:28.173Z,2.50
2017-11-25T20:16:55.712Z,2.50
2017-11-25T20:19:23.236Z,2.50
2017-11-25T20:21:50.791Z,2.50
2017-11-25T20:24:18.315Z,2.40
2017-11-25T20:26:46.662Z,2.30
2017-11-25T20:29:14.184Z,2.30
2017-11-25T20:31:41.734Z,2.30
2017-11-25T20:34:09.266Z,2.20
2017-11-25T20:36:36.870Z,2.20
2017-11-25T20:39:04.437Z,2.10
2017-11-25T20:41:31.984Z,2.10
2017-11-25T20:44:00.272Z,2.20
2017-11-25T20:46:28.591Z,2.20
2017-11-25T20:48:56.115Z,2.20
2017-11-25T20:51:24.422Z,2.30
2017-11-25T20:53:52.011Z,2.30
2017-11-25T20:56:19.544Z,2.30
2017-11-25T20:58:47.125Z,2.30
2017-11-25T21:01:14.649Z,2.40
2017-11-25T21:03:42.993Z,2.40
2017-11-25T21:06:10.514Z,2.40
2017-11-25T21:08:38.060Z,2.40
2017-11-25T21:11:06.347Z,2.40
2017-11-25T21:13:33.892Z,2.40
2017-11-25T21:16:01.419Z,2.40
2017-11-25T21:18:28.966Z,2.40
2017-11-25T21:20:56.492Z,2.40
2017-11-25T21:23:24.832Z,2.50
2017-11-25T21:25:52.398Z,2.50
2017-11-25T21:28:19.923Z,2.60
2017-11-25T21:30:47.465Z,2.50
2017-11-25T21:33:15.767Z,2.50
2017-11-25T21:35:43.317Z,2.50
2017-11-25T21:38:11.612Z,2.50
2017-11-25T21:40:39.160Z,2.40
2017-11-25T21:43:07.451Z,2.40
2017-11-25T21:45:35.001Z,2.40
2017-11-25T21:48:03.312Z,2.40
2017-11-25T21:50:30.864Z,2.40
2017-11-25T21:52:58.391Z,2.40
2017-11-25T21:55:25.936Z,2.40
2017-11-25T21:57:53.459Z,2.40
2017-11-25T22:00:21.004Z,2.40
2017-11-25T22:02:49.353Z,2.40
2017-11-25T22:05:16.911Z,2.40
2017-11-25T22:07:44.437Z,2.30
2017-11-25T22:10:12.012Z,2.30
2017-11-25T22:12:39.560Z,2.20
2017-11-25T22:15:07.083Z,2.10
2017-11-25T22:17:35.397Z,2.10
2017-11-25T22:20:02.924Z,2.10
2017-11-25T22:22:31.290Z,2.10
2017-11-25T22:24:58.821Z,2.10
2017-11-25T22:27:26.364Z,2.00
2017-11-25T22:29:53.886Z,2.00
2017-11-25T22:32:21.444Z,1.90
2017-11-25T22:34:48.967Z,1.90
2017-11-25T22:37:16.495Z,1.90
2017-11-25T22:39:44.814Z,1.80
2017-11-25T22:42:12.353Z,1.80
2017-11-25T22:44:40.659Z,1.70
2017-11-25T22:47:08.196Z,1.70
2017-11-25T22:49:36.515Z,1.80
2017-11-25T22:52:04.048Z,1.70
2017-11-25T22:54:32.357Z,1.80
2017-11-25T22:56:59.896Z,1.80
2017-11-25T22:59:28.227Z,1.80
2017-11-25T23:01:55.755Z,1.80
2017-11-25T23:04:23.304Z,1.80
2017-11-25T23:06:50.856Z,1.90
2017-11-25T23:09:19.155Z,1.90
2017-11-25T23:11:46.713Z,1.90
2017-11-25T23:14:14.244Z,1.90
2017-11-25T23:16:41.787Z,1.90
2017-11-25T23:19:09.325Z,1.90
2017-11-25T23:21:36.881Z,1.90
2017-11-25T23:24:05.179Z,1.90
2017-11-25T23:26:32.745Z,1.90
2017-11-25T23:29:00.276Z,1.90
2017-11-25T23:31:28.596Z,1.90
2017-11-25T23:33:56.135Z,1.90
2017-11-25T23:36:23.703Z,1.90
2017-11-25T23:38:51.239Z,1.90
2017-11-25T23:41:18.772Z,1.90
2017-11-25T23:43:46.330Z,2.00
2017-11-25T23:46:13.860Z,2.00
2017-11-25T23:48:42.171Z,2.00
2017-11-25T23:51:09.707Z,2.00
2017-11-25T23:53:37.250Z,1.90
2017-11-25T23:56:05.561Z,1.90
2017-11-25T23:58:33.116Z,1.90
